sensor_id;sensor_type;location;lat;lon;timestamp;temperature;humidity
77839;SHT31;67034;43.226;27.932;2023-06-10T00:02:16;16.77;63.16
77839;SHT31;67034;43.226;27.932;2023-06-10T00:04:42;17.03;61.89
77839;SHT31;67034;43.226;27.932;2023-06-10T00:07:08;17.19;61.65
77839;SHT31;67034;43.226;27.932;2023-06-10T00:09:34;17.24;62.51
77839;SHT31;67034;43.226;27.932;2023-06-10T00:12:01;17.28;63.46
77839;SHT31;67034;43.226;27.932;2023-06-10T00:14:27;16.99;63.17
77839;SHT31;67034;43.226;27.932;2023-06-10T00:16:53;16.99;62.65
77839;SHT31;67034;43.226;27.932;2023-06-10T00:19:19;16.99;61.78
77839;SHT31;67034;43.226;27.932;2023-06-10T00:21:44;16.80;62.03
77839;SHT31;67034;43.226;27.932;2023-06-10T00:24:10;16.62;62.23
77839;SHT31;67034;43.226;27.932;2023-06-10T00:26:37;16.52;62.39
77839;SHT31;67034;43.226;27.932;2023-06-10T00:29:04;16.48;62.60
77839;SHT31;67034;43.226;27.932;2023-06-10T00:31:30;16.53;62.35
77839;SHT31;67034;43.226;27.932;2023-06-10T00:33:56;16.36;62.67
77839;SHT31;67034;43.226;27.932;2023-06-10T00:36:22;16.40;62.89
77839;SHT31;67034;43.226;27.932;2023-06-10T00:38:48;16.45;62.67
77839;SHT31;67034;43.226;27.932;2023-06-10T00:41:14;16.51;62.93
77839;SHT31;67034;43.226;27.932;2023-06-10T00:43:39;16.77;62.30
77839;SHT31;67034;43.226;27.932;2023-06-10T00:46:07;16.68;62.58
77839;SHT31;67034;43.226;27.932;2023-06-10T00:48:33;16.42;63.34
77839;SHT31;67034;43.226;27.932;2023-06-10T00:50:59;16.24;63.72
77839;SHT31;67034;43.226;27.932;2023-06-10T00:53:26;16.20;63.64
77839;SHT31;67034;43.226;27.932;2023-06-10T00:55:52;16.36;62.98
77839;SHT31;67034;43.226;27.932;2023-06-10T00:58:18;16.42;62.66
77839;SHT31;67034;43.226;27.932;2023-06-10T01:00:44;16.53;60.82
77839;SHT31;67034;43.226;27.932;2023-06-10T01:03:12;16.61;61.65
77839;SHT31;67034;43.226;27.932;2023-06-10T01:05:38;16.61;62.24
77839;SHT31;67034;43.226;27.932;2023-06-10T01:08:09;16.80;62.06
77839;SHT31;67034;43.226;27.932;2023-06-10T01:10:43;17.10;60.80
77839;SHT31;67034;43.226;27.932;2023-06-10T01:13:13;17.04;61.13
77839;SHT31;67034;43.226;27.932;2023-06-10T01:15:39;16.92;61.14
77839;SHT31;67034;43.226;27.932;2023-06-10T01:18:06;16.73;61.43
77839;SHT31;67034;43.226;27.932;2023-06-10T01:20:37;16.75;61.30
77839;SHT31;67034;43.226;27.932;2023-06-10T01:23:07;17.02;61.21
77839;SHT31;67034;43.226;27.932;2023-06-10T01:25:36;16.97;60.27
77839;SHT31;67034;43.226;27.932;2023-06-10T01:28:05;17.00;60.42
77839;SHT31;67034;43.226;27.932;2023-06-10T01:30:37;16.89;61.29
77839;SHT31;67034;43.226;27.932;2023-06-10T01:33:06;16.82;61.48
77839;SHT31;67034;43.226;27.932;2023-06-10T01:35:36;16.94;61.07
77839;SHT31;67034;43.226;27.932;2023-06-10T01:38:04;16.84;61.02
77839;SHT31;67034;43.226;27.932;2023-06-10T01:40:33;16.66;61.51
77839;SHT31;67034;43.226;27.932;2023-06-10T01:42:59;16.68;62.13
77839;SHT31;67034;43.226;27.932;2023-06-10T01:45:25;16.61;62.42
77839;SHT31;67034;43.226;27.932;2023-06-10T01:47:51;16.68;62.22
77839;SHT31;67034;43.226;27.932;2023-06-10T01:50:17;16.82;61.62
77839;SHT31;67034;43.226;27.932;2023-06-10T01:52:43;16.71;62.16
77839;SHT31;67034;43.226;27.932;2023-06-10T01:55:08;16.53;63.01
77839;SHT31;67034;43.226;27.932;2023-06-10T01:57:36;16.34;63.58
77839;SHT31;67034;43.226;27.932;2023-06-10T02:00:01;16.32;63.72
77839;SHT31;67034;43.226;27.932;2023-06-10T02:02:28;16.38;63.54
77839;SHT31;67034;43.226;27.932;2023-06-10T02:04:54;16.26;63.70
77839;SHT31;67034;43.226;27.932;2023-06-10T02:07:20;16.05;64.54
77839;SHT31;67034;43.226;27.932;2023-06-10T02:09:46;16.00;64.59
77839;SHT31;67034;43.226;27.932;2023-06-10T02:12:12;16.00;64.93
77839;SHT31;67034;43.226;27.932;2023-06-10T02:14:39;16.14;64.62
77839;SHT31;67034;43.226;27.932;2023-06-10T02:17:05;16.21;64.30
77839;SHT31;67034;43.226;27.932;2023-06-10T02:19:31;16.00;65.02
77839;SHT31;67034;43.226;27.932;2023-06-10T02:21:57;15.80;65.45
77839;SHT31;67034;43.226;27.932;2023-06-10T02:24:22;15.62;66.04
77839;SHT31;67034;43.226;27.932;2023-06-10T02:26:48;15.71;65.70
77839;SHT31;67034;43.226;27.932;2023-06-10T02:29:14;15.93;65.29
77839;SHT31;67034;43.226;27.932;2023-06-10T02:31:41;15.82;65.25
77839;SHT31;67034;43.226;27.932;2023-06-10T02:34:07;15.69;65.96
77839;SHT31;67034;43.226;27.932;2023-06-10T02:36:33;15.55;66.12
77839;SHT31;67034;43.226;27.932;2023-06-10T02:39:01;15.62;65.89
77839;SHT31;67034;43.226;27.932;2023-06-10T02:41:27;15.79;65.50
77839;SHT31;67034;43.226;27.932;2023-06-10T02:43:55;15.79;65.09
77839;SHT31;67034;43.226;27.932;2023-06-10T02:46:20;15.76;65.22
77839;SHT31;67034;43.226;27.932;2023-06-10T02:48:49;15.80;65.01
77839;SHT31;67034;43.226;27.932;2023-06-10T02:51:17;15.80;65.14
77839;SHT31;67034;43.226;27.932;2023-06-10T02:53:43;15.89;65.06
77839;SHT31;67034;43.226;27.932;2023-06-10T02:56:08;16.08;64.46
77839;SHT31;67034;43.226;27.932;2023-06-10T02:58:34;16.18;64.14
77839;SHT31;67034;43.226;27.932;2023-06-10T03:01:00;16.42;62.95
77839;SHT31;67034;43.226;27.932;2023-06-10T03:03:27;16.75;60.76
77839;SHT31;67034;43.226;27.932;2023-06-10T03:05:55;17.07;61.58
77839;SHT31;67034;43.226;27.932;2023-06-10T03:08:22;17.47;62.10
77839;SHT31;67034;43.226;27.932;2023-06-10T03:10:47;17.42;62.18
77839;SHT31;67034;43.226;27.932;2023-06-10T03:13:14;17.20;62.78
77839;SHT31;67034;43.226;27.932;2023-06-10T03:15:40;16.93;63.36
77839;SHT31;67034;43.226;27.932;2023-06-10T03:18:06;16.92;63.35
77839;SHT31;67034;43.226;27.932;2023-06-10T03:20:32;17.09;63.18
77839;SHT31;67034;43.226;27.932;2023-06-10T03:23:04;17.14;63.62
77839;SHT31;67034;43.226;27.932;2023-06-10T03:25:30;16.89;64.87
77839;SHT31;67034;43.226;27.932;2023-06-10T03:27:56;16.77;65.86
77839;SHT31;67034;43.226;27.932;2023-06-10T03:30:22;16.75;66.31
77839;SHT31;67034;43.226;27.932;2023-06-10T03:32:47;16.87;66.52
77839;SHT31;67034;43.226;27.932;2023-06-10T03:35:14;17.26;66.17
77839;SHT31;67034;43.226;27.932;2023-06-10T03:37:40;17.32;66.75
77839;SHT31;67034;43.226;27.932;2023-06-10T03:40:09;17.51;67.01
77839;SHT31;67034;43.226;27.932;2023-06-10T03:42:35;17.58;66.96
77839;SHT31;67034;43.226;27.932;2023-06-10T03:45:02;17.74;67.01
77839;SHT31;67034;43.226;27.932;2023-06-10T03:47:33;18.08;66.38
77839;SHT31;67034;43.226;27.932;2023-06-10T03:50:00;18.33;65.82
77839;SHT31;67034;43.226;27.932;2023-06-10T03:52:26;18.36;65.81
77839;SHT31;67034;43.226;27.932;2023-06-10T03:54:51;18.48;65.62
77839;SHT31;67034;43.226;27.932;2023-06-10T03:57:19;18.58;65.44
77839;SHT31;67034;43.226;27.932;2023-06-10T03:59:45;18.74;65.04
77839;SHT31;67034;43.226;27.932;2023-06-10T04:02:10;19.01;64.59
77839;SHT31;67034;43.226;27.932;2023-06-10T04:04:36;18.95;64.79
77839;SHT31;67034;43.226;27.932;2023-06-10T04:07:03;18.92;64.96
77839;SHT31;67034;43.226;27.932;2023-06-10T04:09:29;18.92;65.14
77839;SHT31;67034;43.226;27.932;2023-06-10T04:11:55;18.99;65.18
77839;SHT31;67034;43.226;27.932;2023-06-10T04:14:22;19.25;64.52
77839;SHT31;67034;43.226;27.932;2023-06-10T04:16:49;19.16;64.89
77839;SHT31;67034;43.226;27.932;2023-06-10T04:19:15;19.19;64.95
77839;SHT31;67034;43.226;27.932;2023-06-10T04:21:42;19.29;64.70
77839;SHT31;67034;43.226;27.932;2023-06-10T04:24:07;19.47;63.97
77839;SHT31;67034;43.226;27.932;2023-06-10T04:26:35;19.76;63.01
77839;SHT31;67034;43.226;27.932;2023-06-10T04:29:01;19.83;62.33
77839;SHT31;67034;43.226;27.932;2023-06-10T04:31:28;19.88;62.19
77839;SHT31;67034;43.226;27.932;2023-06-10T04:33:54;20.01;61.67
77839;SHT31;67034;43.226;27.932;2023-06-10T04:36:20;20.21;61.41
77839;SHT31;67034;43.226;27.932;2023-06-10T04:38:46;20.55;60.63
77839;SHT31;67034;43.226;27.932;2023-06-10T04:41:12;20.52;60.37
77839;SHT31;67034;43.226;27.932;2023-06-10T04:43:38;20.62;60.50
77839;SHT31;67034;43.226;27.932;2023-06-10T04:46:04;20.73;59.86
77839;SHT31;67034;43.226;27.932;2023-06-10T04:48:32;20.90;59.69
77839;SHT31;67034;43.226;27.932;2023-06-10T04:51:00;21.24;58.91
77839;SHT31;67034;43.226;27.932;2023-06-10T04:53:26;21.40;58.63
77839;SHT31;67034;43.226;27.932;2023-06-10T04:55:54;21.61;58.53
77839;SHT31;67034;43.226;27.932;2023-06-10T04:58:19;21.75;58.30
77839;SHT31;67034;43.226;27.932;2023-06-10T05:00:45;21.90;57.95
77839;SHT31;67034;43.226;27.932;2023-06-10T05:03:11;22.23;57.32
77839;SHT31;67034;43.226;27.932;2023-06-10T05:05:38;22.30;56.75
77839;SHT31;67034;43.226;27.932;2023-06-10T05:08:04;22.23;53.45
77839;SHT31;67034;43.226;27.932;2023-06-10T05:10:30;22.35;52.22
77839;SHT31;67034;43.226;27.932;2023-06-10T05:12:57;22.46;50.60
77839;SHT31;67034;43.226;27.932;2023-06-10T05:15:23;22.74;51.24
77839;SHT31;67034;43.226;27.932;2023-06-10T05:17:49;22.96;50.59
77839;SHT31;67034;43.226;27.932;2023-06-10T05:20:15;22.96;50.71
77839;SHT31;67034;43.226;27.932;2023-06-10T05:22:43;22.98;49.22
77839;SHT31;67034;43.226;27.932;2023-06-10T05:25:10;23.05;49.59
77839;SHT31;67034;43.226;27.932;2023-06-10T05:27:36;23.12;48.74
77839;SHT31;67034;43.226;27.932;2023-06-10T05:30:02;23.29;48.77
77839;SHT31;67034;43.226;27.932;2023-06-10T05:32:28;23.56;48.55
77839;SHT31;67034;43.226;27.932;2023-06-10T05:34:54;23.69;46.89
77839;SHT31;67034;43.226;27.932;2023-06-10T05:37:20;23.62;47.23
77839;SHT31;67034;43.226;27.932;2023-06-10T05:39:47;23.66;47.55
77839;SHT31;67034;43.226;27.932;2023-06-10T05:42:13;23.74;47.47
77839;SHT31;67034;43.226;27.932;2023-06-10T05:44:38;23.87;47.65
77839;SHT31;67034;43.226;27.932;2023-06-10T05:47:05;23.96;47.15
77839;SHT31;67034;43.226;27.932;2023-06-10T05:49:30;24.14;47.12
77839;SHT31;67034;43.226;27.932;2023-06-10T05:51:56;24.24;47.20
77839;SHT31;67034;43.226;27.932;2023-06-10T05:54:25;24.29;46.22
77839;SHT31;67034;43.226;27.932;2023-06-10T05:56:52;24.43;45.70
77839;SHT31;67034;43.226;27.932;2023-06-10T05:59:17;24.47;45.24
77839;SHT31;67034;43.226;27.932;2023-06-10T06:01:43;24.41;45.34
77839;SHT31;67034;43.226;27.932;2023-06-10T06:04:09;24.48;45.35
77839;SHT31;67034;43.226;27.932;2023-06-10T06:06:35;24.65;45.43
77839;SHT31;67034;43.226;27.932;2023-06-10T06:09:01;24.84;44.86
77839;SHT31;67034;43.226;27.932;2023-06-10T06:11:26;25.00;44.67
77839;SHT31;67034;43.226;27.932;2023-06-10T06:13:54;24.99;44.62
77839;SHT31;67034;43.226;27.932;2023-06-10T06:16:19;25.21;44.45
77839;SHT31;67034;43.226;27.932;2023-06-10T06:18:45;25.23;43.97
77839;SHT31;67034;43.226;27.932;2023-06-10T06:21:11;25.16;43.95
77839;SHT31;67034;43.226;27.932;2023-06-10T06:23:37;25.17;43.66
77839;SHT31;67034;43.226;27.932;2023-06-10T06:26:02;25.21;43.84
77839;SHT31;67034;43.226;27.932;2023-06-10T06:28:28;25.18;43.86
77839;SHT31;67034;43.226;27.932;2023-06-10T06:30:56;25.34;43.80
77839;SHT31;67034;43.226;27.932;2023-06-10T06:33:21;25.41;43.89
77839;SHT31;67034;43.226;27.932;2023-06-10T06:35:47;25.74;43.70
77839;SHT31;67034;43.226;27.932;2023-06-10T06:38:13;25.86;45.22
77839;SHT31;67034;43.226;27.932;2023-06-10T06:40:39;25.79;44.49
77839;SHT31;67034;43.226;27.932;2023-06-10T06:43:05;25.95;45.24
77839;SHT31;67034;43.226;27.932;2023-06-10T06:45:31;26.07;45.44
77839;SHT31;67034;43.226;27.932;2023-06-10T06:48:00;26.03;43.68
77839;SHT31;67034;43.226;27.932;2023-06-10T06:50:26;25.76;43.20
77839;SHT31;67034;43.226;27.932;2023-06-10T06:52:52;25.58;43.15
77839;SHT31;67034;43.226;27.932;2023-06-10T06:55:18;25.64;43.22
77839;SHT31;67034;43.226;27.932;2023-06-10T06:57:43;25.59;43.00
77839;SHT31;67034;43.226;27.932;2023-06-10T07:00:10;25.57;42.96
77839;SHT31;67034;43.226;27.932;2023-06-10T07:02:36;25.67;42.51
77839;SHT31;67034;43.226;27.932;2023-06-10T07:05:03;25.62;42.21
77839;SHT31;67034;43.226;27.932;2023-06-10T07:07:29;25.81;42.19
77839;SHT31;67034;43.226;27.932;2023-06-10T07:09:55;25.88;43.09
77839;SHT31;67034;43.226;27.932;2023-06-10T07:12:21;25.93;42.28
77839;SHT31;67034;43.226;27.932;2023-06-10T07:14:49;26.06;41.56
77839;SHT31;67034;43.226;27.932;2023-06-10T07:17:15;26.10;41.27
77839;SHT31;67034;43.226;27.932;2023-06-10T07:19:41;26.06;40.18
77839;SHT31;67034;43.226;27.932;2023-06-10T07:22:08;26.10;40.24
77839;SHT31;67034;43.226;27.932;2023-06-10T07:24:34;26.13;40.39
77839;SHT31;67034;43.226;27.932;2023-06-10T07:27:00;26.22;39.88
77839;SHT31;67034;43.226;27.932;2023-06-10T07:29:26;26.44;39.97
77839;SHT31;67034;43.226;27.932;2023-06-10T07:31:51;26.54;40.28
77839;SHT31;67034;43.226;27.932;2023-06-10T07:34:18;26.55;40.74
77839;SHT31;67034;43.226;27.932;2023-06-10T07:36:44;26.58;40.40
77839;SHT31;67034;43.226;27.932;2023-06-10T07:39:11;26.71;40.11
77839;SHT31;67034;43.226;27.932;2023-06-10T07:41:37;26.57;40.49
77839;SHT31;67034;43.226;27.932;2023-06-10T07:44:03;26.48;40.55
77839;SHT31;67034;43.226;27.932;2023-06-10T07:46:29;26.60;39.99
77839;SHT31;67034;43.226;27.932;2023-06-10T07:48:54;26.75;39.45
77839;SHT31;67034;43.226;27.932;2023-06-10T07:51:21;26.67;39.26
77839;SHT31;67034;43.226;27.932;2023-06-10T07:53:47;26.71;38.57
77839;SHT31;67034;43.226;27.932;2023-06-10T07:56:14;26.91;38.73
77839;SHT31;67034;43.226;27.932;2023-06-10T07:58:40;27.09;40.05
77839;SHT31;67034;43.226;27.932;2023-06-10T08:01:06;27.21;40.81
77839;SHT31;67034;43.226;27.932;2023-06-10T08:03:32;27.22;40.41
77839;SHT31;67034;43.226;27.932;2023-06-10T08:05:57;27.38;40.28
77839;SHT31;67034;43.226;27.932;2023-06-10T08:08:23;27.53;40.46
77839;SHT31;67034;43.226;27.932;2023-06-10T08:10:49;27.52;40.20
77839;SHT31;67034;43.226;27.932;2023-06-10T08:13:16;27.67;39.95
77839;SHT31;67034;43.226;27.932;2023-06-10T08:15:42;27.80;40.06
77839;SHT31;67034;43.226;27.932;2023-06-10T08:18:08;28.04;40.10
77839;SHT31;67034;43.226;27.932;2023-06-10T08:20:34;28.14;42.77
77839;SHT31;67034;43.226;27.932;2023-06-10T08:23:00;27.89;43.91
77839;SHT31;67034;43.226;27.932;2023-06-10T08:25:25;27.59;44.00
77839;SHT31;67034;43.226;27.932;2023-06-10T08:27:51;27.38;45.51
77839;SHT31;67034;43.226;27.932;2023-06-10T08:30:19;27.18;45.34
77839;SHT31;67034;43.226;27.932;2023-06-10T08:32:44;26.91;45.47
77839;SHT31;67034;43.226;27.932;2023-06-10T08:35:10;26.96;46.50
77839;SHT31;67034;43.226;27.932;2023-06-10T08:37:36;27.13;45.17
77839;SHT31;67034;43.226;27.932;2023-06-10T08:40:02;27.33;45.32
77839;SHT31;67034;43.226;27.932;2023-06-10T08:42:33;27.39;45.59
77839;SHT31;67034;43.226;27.932;2023-06-10T08:45:01;27.53;46.56
77839;SHT31;67034;43.226;27.932;2023-06-10T08:47:29;27.76;45.99
77839;SHT31;67034;43.226;27.932;2023-06-10T08:50:05;27.89;44.96
77839;SHT31;67034;43.226;27.932;2023-06-10T08:52:35;27.67;45.83
77839;SHT31;67034;43.226;27.932;2023-06-10T08:55:04;27.89;46.74
77839;SHT31;67034;43.226;27.932;2023-06-10T08:57:30;28.14;46.20
77839;SHT31;67034;43.226;27.932;2023-06-10T08:59:57;28.28;45.71
77839;SHT31;67034;43.226;27.932;2023-06-10T09:02:24;28.45;45.78
77839;SHT31;67034;43.226;27.932;2023-06-10T09:04:51;28.62;45.08
77839;SHT31;67034;43.226;27.932;2023-06-10T09:07:17;28.76;43.71
77839;SHT31;67034;43.226;27.932;2023-06-10T09:09:44;28.58;40.79
77839;SHT31;67034;43.226;27.932;2023-06-10T09:12:13;28.60;42.56
77839;SHT31;67034;43.226;27.932;2023-06-10T09:14:39;28.70;41.71
77839;SHT31;67034;43.226;27.932;2023-06-10T09:17:06;28.79;38.76
77839;SHT31;67034;43.226;27.932;2023-06-10T09:19:32;28.68;37.11
77839;SHT31;67034;43.226;27.932;2023-06-10T09:21:59;28.76;37.24
77839;SHT31;67034;43.226;27.932;2023-06-10T09:24:25;29.00;36.70
77839;SHT31;67034;43.226;27.932;2023-06-10T09:27:02;29.17;36.42
77839;SHT31;67034;43.226;27.932;2023-06-10T09:29:28;29.44;37.41
77839;SHT31;67034;43.226;27.932;2023-06-10T09:31:54;29.50;37.60
77839;SHT31;67034;43.226;27.932;2023-06-10T09:34:24;29.34;37.46
77839;SHT31;67034;43.226;27.932;2023-06-10T09:36:50;28.92;37.77
77839;SHT31;67034;43.226;27.932;2023-06-10T09:39:18;28.76;38.42
77839;SHT31;67034;43.226;27.932;2023-06-10T09:41:45;28.92;38.51
77839;SHT31;67034;43.226;27.932;2023-06-10T09:44:12;29.27;37.64
77839;SHT31;67034;43.226;27.932;2023-06-10T09:46:39;29.57;37.98
77839;SHT31;67034;43.226;27.932;2023-06-10T09:49:04;29.74;38.27
77839;SHT31;67034;43.226;27.932;2023-06-10T09:51:30;29.62;39.41
77839;SHT31;67034;43.226;27.932;2023-06-10T09:53:56;29.55;39.30
77839;SHT31;67034;43.226;27.932;2023-06-10T09:56:32;29.03;39.77
77839;SHT31;67034;43.226;27.932;2023-06-10T09:58:58;29.17;40.51
77839;SHT31;67034;43.226;27.932;2023-06-10T10:01:24;29.41;39.87
77839;SHT31;67034;43.226;27.932;2023-06-10T10:03:51;29.44;39.53
77839;SHT31;67034;43.226;27.932;2023-06-10T10:06:18;29.75;39.25
77839;SHT31;67034;43.226;27.932;2023-06-10T10:08:46;30.08;39.60
77839;SHT31;67034;43.226;27.932;2023-06-10T10:11:12;30.23;39.80
77839;SHT31;67034;43.226;27.932;2023-06-10T10:13:39;30.44;39.34
77839;SHT31;67034;43.226;27.932;2023-06-10T10:16:09;30.75;38.38
77839;SHT31;67034;43.226;27.932;2023-06-10T10:18:39;30.84;38.72
77839;SHT31;67034;43.226;27.932;2023-06-10T10:21:11;30.94;38.36
77839;SHT31;67034;43.226;27.932;2023-06-10T10:23:41;31.12;37.54
77839;SHT31;67034;43.226;27.932;2023-06-10T10:26:11;31.23;37.50
77839;SHT31;67034;43.226;27.932;2023-06-10T10:28:41;31.03;34.34
77839;SHT31;67034;43.226;27.932;2023-06-10T10:31:12;31.08;31.24
77839;SHT31;67034;43.226;27.932;2023-06-10T10:33:48;31.19;30.92
77839;SHT31;67034;43.226;27.932;2023-06-10T10:36:18;31.21;30.50
77839;SHT31;67034;43.226;27.932;2023-06-10T10:38:45;30.98;30.77
77839;SHT31;67034;43.226;27.932;2023-06-10T10:41:13;30.82;31.66
77839;SHT31;67034;43.226;27.932;2023-06-10T10:43:41;30.88;31.10
77839;SHT31;67034;43.226;27.932;2023-06-10T10:46:12;30.85;31.50
77839;SHT31;67034;43.226;27.932;2023-06-10T10:48:39;31.22;31.78
77839;SHT31;67034;43.226;27.932;2023-06-10T10:51:07;31.49;31.55
77839;SHT31;67034;43.226;27.932;2023-06-10T10:53:33;31.87;31.55
77839;SHT31;67034;43.226;27.932;2023-06-10T10:55:59;32.24;30.70
77839;SHT31;67034;43.226;27.932;2023-06-10T10:58:25;32.61;31.40
77839;SHT31;67034;43.226;27.932;2023-06-10T11:00:53;32.46;29.38
77839;SHT31;67034;43.226;27.932;2023-06-10T11:03:18;32.20;32.15
77839;SHT31;67034;43.226;27.932;2023-06-10T11:05:46;31.94;32.97
77839;SHT31;67034;43.226;27.932;2023-06-10T11:08:15;31.42;35.01
77839;SHT31;67034;43.226;27.932;2023-06-10T11:11:17;31.30;34.91
77839;SHT31;67034;43.226;27.932;2023-06-10T11:13:58;31.40;32.11
77839;SHT31;67034;43.226;27.932;2023-06-10T11:16:27;31.77;32.36
77839;SHT31;67034;43.226;27.932;2023-06-10T11:18:54;32.03;30.57
77839;SHT31;67034;43.226;27.932;2023-06-10T11:21:20;32.25;30.64
77839;SHT31;67034;43.226;27.932;2023-06-10T11:23:46;32.49;31.50
77839;SHT31;67034;43.226;27.932;2023-06-10T11:26:13;32.83;31.18
77839;SHT31;67034;43.226;27.932;2023-06-10T11:28:39;33.06;28.90
77839;SHT31;67034;43.226;27.932;2023-06-10T11:31:05;32.96;29.49
77839;SHT31;67034;43.226;27.932;2023-06-10T11:33:32;32.61;30.79
77839;SHT31;67034;43.226;27.932;2023-06-10T11:35:58;32.34;33.49
77839;SHT31;67034;43.226;27.932;2023-06-10T11:38:24;31.67;36.21
77839;SHT31;67034;43.226;27.932;2023-06-10T11:40:50;31.45;35.39
77839;SHT31;67034;43.226;27.932;2023-06-10T11:43:17;31.46;35.20
77839;SHT31;67034;43.226;27.932;2023-06-10T11:45:43;31.29;35.73
77839;SHT31;67034;43.226;27.932;2023-06-10T11:48:10;30.81;38.41
77839;SHT31;67034;43.226;27.932;2023-06-10T11:50:37;30.57;37.77
77839;SHT31;67034;43.226;27.932;2023-06-10T11:53:03;30.57;37.78
77839;SHT31;67034;43.226;27.932;2023-06-10T11:55:41;30.50;38.10
77839;SHT31;67034;43.226;27.932;2023-06-10T11:58:12;30.16;38.17
77839;SHT31;67034;43.226;27.932;2023-06-10T12:00:43;30.22;38.17
77839;SHT31;67034;43.226;27.932;2023-06-10T12:03:09;30.48;37.86
77839;SHT31;67034;43.226;27.932;2023-06-10T12:05:36;30.64;34.15
77839;SHT31;67034;43.226;27.932;2023-06-10T12:08:09;30.78;32.10
77839;SHT31;67034;43.226;27.932;2023-06-10T12:10:39;31.11;31.33
77839;SHT31;67034;43.226;27.932;2023-06-10T12:13:05;31.40;30.82
77839;SHT31;67034;43.226;27.932;2023-06-10T12:15:31;31.84;30.70
77839;SHT31;67034;43.226;27.932;2023-06-10T12:17:58;32.14;29.53
77839;SHT31;67034;43.226;27.932;2023-06-10T12:20:28;32.03;28.95
77839;SHT31;67034;43.226;27.932;2023-06-10T12:22:55;31.98;29.87
77839;SHT31;67034;43.226;27.932;2023-06-10T12:25:24;32.00;30.04
77839;SHT31;67034;43.226;27.932;2023-06-10T12:27:55;31.76;30.40
77839;SHT31;67034;43.226;27.932;2023-06-10T12:30:23;31.63;31.80
77839;SHT31;67034;43.226;27.932;2023-06-10T12:32:50;31.65;31.49
77839;SHT31;67034;43.226;27.932;2023-06-10T12:35:18;31.49;31.38
77839;SHT31;67034;43.226;27.932;2023-06-10T12:37:56;31.28;31.76
77839;SHT31;67034;43.226;27.932;2023-06-10T12:40:26;31.49;32.03
77839;SHT31;67034;43.226;27.932;2023-06-10T12:42:54;31.67;31.52
77839;SHT31;67034;43.226;27.932;2023-06-10T12:45:26;31.86;30.76
77839;SHT31;67034;43.226;27.932;2023-06-10T12:47:52;31.72;30.49
77839;SHT31;67034;43.226;27.932;2023-06-10T12:50:18;31.65;30.78
77839;SHT31;67034;43.226;27.932;2023-06-10T12:52:43;31.67;31.58
77839;SHT31;67034;43.226;27.932;2023-06-10T12:55:10;31.66;31.09
77839;SHT31;67034;43.226;27.932;2023-06-10T12:57:36;31.51;31.82
77839;SHT31;67034;43.226;27.932;2023-06-10T13:00:02;31.57;31.69
77839;SHT31;67034;43.226;27.932;2023-06-10T13:02:29;31.66;31.83
77839;SHT31;67034;43.226;27.932;2023-06-10T13:04:55;31.88;32.57
77839;SHT31;67034;43.226;27.932;2023-06-10T13:07:21;32.10;31.84
77839;SHT31;67034;43.226;27.932;2023-06-10T13:09:48;32.44;31.14
77839;SHT31;67034;43.226;27.932;2023-06-10T13:12:16;32.45;30.62
77839;SHT31;67034;43.226;27.932;2023-06-10T13:14:43;32.27;30.96
77839;SHT31;67034;43.226;27.932;2023-06-10T13:17:08;32.31;31.39
77839;SHT31;67034;43.226;27.932;2023-06-10T13:19:34;32.46;31.00
77839;SHT31;67034;43.226;27.932;2023-06-10T13:22:01;32.39;31.42
77839;SHT31;67034;43.226;27.932;2023-06-10T13:24:26;32.38;30.90
77839;SHT31;67034;43.226;27.932;2023-06-10T13:26:52;32.29;30.55
77839;SHT31;67034;43.226;27.932;2023-06-10T13:29:20;32.46;30.71
77839;SHT31;67034;43.226;27.932;2023-06-10T13:31:46;32.51;30.48
77839;SHT31;67034;43.226;27.932;2023-06-10T13:34:11;32.86;30.21
77839;SHT31;67034;43.226;27.932;2023-06-10T13:36:37;33.16;29.78
77839;SHT31;67034;43.226;27.932;2023-06-10T13:39:03;33.33;29.47
77839;SHT31;67034;43.226;27.932;2023-06-10T13:41:28;33.49;29.66
77839;SHT31;67034;43.226;27.932;2023-06-10T13:43:54;33.33;31.64
77839;SHT31;67034;43.226;27.932;2023-06-10T13:46:22;32.96;33.44
77839;SHT31;67034;43.226;27.932;2023-06-10T13:48:47;32.36;35.88
77839;SHT31;67034;43.226;27.932;2023-06-10T13:51:13;31.60;38.92
77839;SHT31;67034;43.226;27.932;2023-06-10T13:53:39;31.15;40.48
77839;SHT31;67034;43.226;27.932;2023-06-10T13:56:05;31.26;40.58
77839;SHT31;67034;43.226;27.932;2023-06-10T13:58:31;31.39;41.40
77839;SHT31;67034;43.226;27.932;2023-06-10T14:00:57;31.15;41.05
77839;SHT31;67034;43.226;27.932;2023-06-10T14:03:25;30.01;43.28
77839;SHT31;67034;43.226;27.932;2023-06-10T14:05:51;29.64;44.82
77839;SHT31;67034;43.226;27.932;2023-06-10T14:08:16;29.17;45.02
77839;SHT31;67034;43.226;27.932;2023-06-10T14:10:43;28.53;44.71
77839;SHT31;67034;43.226;27.932;2023-06-10T14:13:08;28.18;45.93
77839;SHT31;67034;43.226;27.932;2023-06-10T14:15:34;27.91;44.99
77839;SHT31;67034;43.226;27.932;2023-06-10T14:18:00;28.14;45.77
77839;SHT31;67034;43.226;27.932;2023-06-10T14:20:28;28.51;45.39
77839;SHT31;67034;43.226;27.932;2023-06-10T14:22:57;28.60;43.87
77839;SHT31;67034;43.226;27.932;2023-06-10T14:25:22;28.73;44.30
77839;SHT31;67034;43.226;27.932;2023-06-10T14:27:48;28.77;43.33
77839;SHT31;67034;43.226;27.932;2023-06-10T14:30:14;28.80;42.38
77839;SHT31;67034;43.226;27.932;2023-06-10T14:32:40;28.68;43.10
77839;SHT31;67034;43.226;27.932;2023-06-10T14:35:06;28.24;44.82
77839;SHT31;67034;43.226;27.932;2023-06-10T14:37:34;28.25;45.50
77839;SHT31;67034;43.226;27.932;2023-06-10T14:39:59;28.42;45.57
77839;SHT31;67034;43.226;27.932;2023-06-10T14:42:25;28.44;44.72
77839;SHT31;67034;43.226;27.932;2023-06-10T14:44:51;28.53;43.10
77839;SHT31;67034;43.226;27.932;2023-06-10T14:47:17;28.79;43.95
77839;SHT31;67034;43.226;27.932;2023-06-10T14:49:42;29.03;42.73
77839;SHT31;67034;43.226;27.932;2023-06-10T14:52:09;29.31;41.70
77839;SHT31;67034;43.226;27.932;2023-06-10T14:54:36;29.62;40.85
77839;SHT31;67034;43.226;27.932;2023-06-10T14:57:02;30.05;40.78
77839;SHT31;67034;43.226;27.932;2023-06-10T14:59:28;30.48;39.47
77839;SHT31;67034;43.226;27.932;2023-06-10T15:01:54;30.54;38.62
77839;SHT31;67034;43.226;27.932;2023-06-10T15:04:19;30.22;38.73
77839;SHT31;67034;43.226;27.932;2023-06-10T15:06:45;29.79;38.87
77839;SHT31;67034;43.226;27.932;2023-06-10T15:09:14;29.85;39.85
77839;SHT31;67034;43.226;27.932;2023-06-10T15:11:41;29.74;40.28
77839;SHT31;67034;43.226;27.932;2023-06-10T15:14:07;29.28;39.34